sensor_id;sensor_type;location;lat;lon;timestamp;P1;durP1;ratioP1;P2;durP2;ratioP2
83209;SDS011;73098;47.102;15.428;2023-11-22T00:00:58;5.97;;;5.40;;
83209;SDS011;73098;47.102;15.428;2023-11-22T00:03:25;7.13;;;6.43;;
83209;SDS011;73098;47.102;15.428;2023-11-22T00:05:51;8.10;;;7.40;;
83209;SDS011;73098;47.102;15.428;2023-11-22T00:08:18;7.43;;;6.73;;
83209;SDS011;73098;47.102;15.428;2023-11-22T00:10:44;5.90;;;5.37;;
83209;SDS011;73098;47.102;15.428;2023-11-22T00:13:11;7.33;;;5.97;;
83209;SDS011;73098;47.102;15.428;2023-11-22T00:15:37;8.50;;;6.57;;
83209;SDS011;73098;47.102;15.428;2023-11-22T00:18:04;7.17;;;5.83;;
83209;SDS011;73098;47.102;15.428;2023-11-22T00:20:30;8.40;;;7.60;;
83209;SDS011;73098;47.102;15.428;2023-11-22T00:22:57;7.23;;;6.57;;
83209;SDS011;73098;47.102;15.428;2023-11-22T00:25:23;7.77;;;6.97;;
83209;SDS011;73098;47.102;15.428;2023-11-22T00:27:50;6.80;;;6.27;;
83209;SDS011;73098;47.102;15.428;2023-11-22T00:30:16;8.27;;;6.67;;
83209;SDS011;73098;47.102;15.428;2023-11-22T00:32:43;7.57;;;6.87;;
83209;SDS011;73098;47.102;15.428;2023-11-22T00:35:10;7.00;;;6.07;;
83209;SDS011;73098;47.102;15.428;2023-11-22T00:37:36;6.00;;;5.50;;
83209;SDS011;73098;47.102;15.428;2023-11-22T00:40:03;7.83;;;4.70;;
83209;SDS011;73098;47.102;15.428;2023-11-22T00:42:30;6.97;;;6.27;;
83209;SDS011;73098;47.102;15.428;2023-11-22T00:44:56;7.40;;;5.80;;
83209;SDS011;73098;47.102;15.428;2023-11-22T00:47:23;6.17;;;5.57;;
83209;SDS011;73098;47.102;15.428;2023-11-22T00:49:49;6.53;;;5.63;;
83209;SDS011;73098;47.102;15.428;2023-11-22T00:52:16;6.00;;;5.40;;
83209;SDS011;73098;47.102;15.428;2023-11-22T00:54:42;5.63;;;5.13;;
83209;SDS011;73098;47.102;15.428;2023-11-22T00:57:09;5.83;;;4.90;;
83209;SDS011;73098;47.102;15.428;2023-11-22T00:59:35;4.90;;;4.40;;
83209;SDS011;73098;47.102;15.428;2023-11-22T01:02:02;5.43;;;4.93;;
83209;SDS011;73098;47.102;15.428;2023-11-22T01:04:28;5.00;;;4.50;;
83209;SDS011;73098;47.102;15.428;2023-11-22T01:06:55;4.90;;;4.50;;
83209;SDS011;73098;47.102;15.428;2023-11-22T01:09:21;5.80;;;5.30;;
83209;SDS011;73098;47.102;15.428;2023-11-22T01:11:48;5.90;;;4.80;;
83209;SDS011;73098;47.102;15.428;2023-11-22T01:14:14;5.50;;;4.97;;
83209;SDS011;73098;47.102;15.428;2023-11-22T01:16:41;5.90;;;5.10;;
83209;SDS011;73098;47.102;15.428;2023-11-22T01:19:07;5.03;;;4.63;;
83209;SDS011;73098;47.102;15.428;2023-11-22T01:21:34;4.53;;;3.83;;
83209;SDS011;73098;47.102;15.428;2023-11-22T01:24:00;4.10;;;3.80;;
83209;SDS011;73098;47.102;15.428;2023-11-22T01:26:27;5.37;;;4.97;;
83209;SDS011;73098;47.102;15.428;2023-11-22T01:28:53;4.70;;;4.30;;
83209;SDS011;73098;47.102;15.428;2023-11-22T01:31:20;4.93;;;4.43;;
83209;SDS011;73098;47.102;15.428;2023-11-22T01:33:47;5.10;;;4.40;;
83209;SDS011;73098;47.102;15.428;2023-11-22T01:36:13;4.60;;;4.30;;
83209;SDS011;73098;47.102;15.428;2023-11-22T01:38:40;5.03;;;4.50;;
83209;SDS011;73098;47.102;15.428;2023-11-22T01:41:06;4.63;;;4.23;;
83209;SDS011;73098;47.102;15.428;2023-11-22T01:43:33;5.10;;;4.60;;
83209;SDS011;73098;47.102;15.428;2023-11-22T01:45:59;4.83;;;4.43;;
83209;SDS011;73098;47.102;15.428;2023-11-22T01:48:26;5.30;;;4.90;;
83209;SDS011;73098;47.102;15.428;2023-11-22T01:50:53;4.83;;;4.43;;
83209;SDS011;73098;47.102;15.428;2023-11-22T01:53:19;4.60;;;4.07;;
83209;SDS011;73098;47.102;15.428;2023-11-22T01:55:46;4.20;;;3.80;;
83209;SDS011;73098;47.102;15.428;2023-11-22T01:58:13;4.70;;;4.30;;
83209;SDS011;73098;47.102;15.428;2023-11-22T02:00:50;4.07;;;3.77;;
83209;SDS011;73098;47.102;15.428;2023-11-22T02:03:16;4.57;;;4.13;;
83209;SDS011;73098;47.102;15.428;2023-11-22T02:05:44;4.40;;;4.10;;
83209;SDS011;73098;47.102;15.428;2023-11-22T02:08:11;4.63;;;4.23;;
83209;SDS011;73098;47.102;15.428;2023-11-22T02:24:30;4.10;;;3.70;;
83209;SDS011;73098;47.102;15.428;2023-11-22T02:26:56;3.97;;;3.57;;
83209;SDS011;73098;47.102;15.428;2023-11-22T02:29:23;3.80;;;3.50;;
83209;SDS011;73098;47.102;15.428;2023-11-22T02:31:49;3.50;;;3.20;;
83209;SDS011;73098;47.102;15.428;2023-11-22T02:34:16;3.80;;;3.50;;
83209;SDS011;73098;47.102;15.428;2023-11-22T02:36:42;4.07;;;3.77;;
83209;SDS011;73098;47.102;15.428;2023-11-22T02:39:20;4.40;;;4.00;;
83209;SDS011;73098;47.102;15.428;2023-11-22T02:41:47;4.63;;;3.70;;
83209;SDS011;73098;47.102;15.428;2023-11-22T02:44:13;4.00;;;3.70;;
83209;SDS011;73098;47.102;15.428;2023-11-22T02:46:40;5.90;;;4.67;;
83209;SDS011;73098;47.102;15.428;2023-11-22T02:49:06;5.60;;;3.90;;
83209;SDS011;73098;47.102;15.428;2023-11-22T02:51:33;4.33;;;3.83;;
83209;SDS011;73098;47.102;15.428;2023-11-22T02:53:59;4.77;;;4.37;;
83209;SDS011;73098;47.102;15.428;2023-11-22T02:56:25;4.03;;;3.73;;
83209;SDS011;73098;47.102;15.428;2023-11-22T02:58:52;4.03;;;3.73;;
83209;SDS011;73098;47.102;15.428;2023-11-22T03:01:19;4.70;;;4.30;;
83209;SDS011;73098;47.102;15.428;2023-11-22T03:03:45;4.27;;;3.60;;
83209;SDS011;73098;47.102;15.428;2023-11-22T03:06:12;4.03;;;3.70;;
83209;SDS011;73098;47.102;15.428;2023-11-22T03:08:38;3.83;;;3.53;;
83209;SDS011;73098;47.102;15.428;2023-11-22T03:11:05;3.70;;;3.40;;
83209;SDS011;73098;47.102;15.428;2023-11-22T03:13:31;4.30;;;4.00;;
83209;SDS011;73098;47.102;15.428;2023-11-22T03:15:58;4.23;;;3.83;;
83209;SDS011;73098;47.102;15.428;2023-11-22T03:18:25;3.53;;;3.23;;
83209;SDS011;73098;47.102;15.428;2023-11-22T03:20:51;4.30;;;3.90;;
83209;SDS011;73098;47.102;15.428;2023-11-22T03:23:18;3.60;;;3.30;;
83209;SDS011;73098;47.102;15.428;2023-11-22T03:25:44;3.73;;;3.43;;
83209;SDS011;73098;47.102;15.428;2023-11-22T03:28:11;3.53;;;3.23;;
83209;SDS011;73098;47.102;15.428;2023-11-22T03:30:37;3.80;;;3.50;;
83209;SDS011;73098;47.102;15.428;2023-11-22T03:33:04;4.73;;;3.50;;
83209;SDS011;73098;47.102;15.428;2023-11-22T03:35:30;3.73;;;3.07;;
83209;SDS011;73098;47.102;15.428;2023-11-22T03:37:57;3.60;;;3.30;;
83209;SDS011;73098;47.102;15.428;2023-11-22T03:40:23;3.70;;;3.40;;
83209;SDS011;73098;47.102;15.428;2023-11-22T03:42:50;3.07;;;2.77;;
83209;SDS011;73098;47.102;15.428;2023-11-22T03:45:16;3.40;;;2.87;;
83209;SDS011;73098;47.102;15.428;2023-11-22T03:47:43;4.00;;;3.47;;
83209;SDS011;73098;47.102;15.428;2023-11-22T03:50:09;3.53;;;3.23;;
83209;SDS011;73098;47.102;15.428;2023-11-22T03:52:36;3.40;;;3.10;;
83209;SDS011;73098;47.102;15.428;2023-11-22T03:55:03;3.60;;;3.30;;
83209;SDS011;73098;47.102;15.428;2023-11-22T03:57:30;3.50;;;3.20;;
83209;SDS011;73098;47.102;15.428;2023-11-22T03:59:56;4.10;;;3.50;;
83209;SDS011;73098;47.102;15.428;2023-11-22T04:02:23;4.13;;;3.80;;
83209;SDS011;73098;47.102;15.428;2023-11-22T04:04:49;4.03;;;3.73;;
83209;SDS011;73098;47.102;15.428;2023-11-22T04:07:16;3.90;;;3.60;;
83209;SDS011;73098;47.102;15.428;2023-11-22T04:09:42;4.03;;;3.60;;
83209;SDS011;73098;47.102;15.428;2023-11-22T04:12:08;4.10;;;3.67;;
83209;SDS011;73098;47.102;15.428;2023-11-22T04:14:35;11.60;;;4.43;;
83209;SDS011;73098;47.102;15.428;2023-11-22T04:17:02;3.90;;;3.60;;
83209;SDS011;73098;47.102;15.428;2023-11-22T04:19:29;3.70;;;3.40;;
83209;SDS011;73098;47.102;15.428;2023-11-22T04:21:56;3.70;;;3.00;;
83209;SDS011;73098;47.102;15.428;2023-11-22T04:24:22;3.33;;;3.07;;
83209;SDS011;73098;47.102;15.428;2023-11-22T04:26:49;4.03;;;3.73;;
83209;SDS011;73098;47.102;15.428;2023-11-22T04:29:15;2.83;;;2.63;;
83209;SDS011;73098;47.102;15.428;2023-11-22T04:31:42;3.60;;;3.27;;
83209;SDS011;73098;47.102;15.428;2023-11-22T04:34:08;3.67;;;3.37;;
83209;SDS011;73098;47.102;15.428;2023-11-22T04:36:35;3.03;;;2.83;;
83209;SDS011;73098;47.102;15.428;2023-11-22T04:39:01;5.63;;;3.10;;
83209;SDS011;73098;47.102;15.428;2023-11-22T04:41:28;2.93;;;2.73;;
83209;SDS011;73098;47.102;15.428;2023-11-22T04:43:54;4.63;;;3.17;;
83209;SDS011;73098;47.102;15.428;2023-11-22T04:46:21;3.60;;;3.27;;
83209;SDS011;73098;47.102;15.428;2023-11-22T04:48:47;3.50;;;3.30;;
83209;SDS011;73098;47.102;15.428;2023-11-22T04:51:14;3.40;;;3.20;;
83209;SDS011;73098;47.102;15.428;2023-11-22T04:53:40;3.40;;;3.10;;
83209;SDS011;73098;47.102;15.428;2023-11-22T04:56:07;3.70;;;3.40;;
83209;SDS011;73098;47.102;15.428;2023-11-22T04:58:33;3.50;;;3.20;;
83209;SDS011;73098;47.102;15.428;2023-11-22T05:01:00;3.53;;;3.23;;
83209;SDS011;73098;47.102;15.428;2023-11-22T05:03:27;3.70;;;3.30;;
83209;SDS011;73098;47.102;15.428;2023-11-22T05:05:53;3.40;;;3.10;;
83209;SDS011;73098;47.102;15.428;2023-11-22T05:08:20;3.40;;;3.20;;
83209;SDS011;73098;47.102;15.428;2023-11-22T05:10:46;4.23;;;3.20;;
83209;SDS011;73098;47.102;15.428;2023-11-22T05:13:13;3.63;;;3.33;;
83209;SDS011;73098;47.102;15.428;2023-11-22T05:15:39;3.87;;;3.57;;
83209;SDS011;73098;47.102;15.428;2023-11-22T05:18:06;3.70;;;3.40;;
83209;SDS011;73098;47.102;15.428;2023-11-22T05:20:32;3.47;;;3.17;;
83209;SDS011;73098;47.102;15.428;2023-11-22T05:22:59;3.90;;;3.13;;
83209;SDS011;73098;47.102;15.428;2023-11-22T05:25:25;5.20;;;3.17;;
83209;SDS011;73098;47.102;15.428;2023-11-22T05:27:52;5.17;;;3.57;;
83209;SDS011;73098;47.102;15.428;2023-11-22T05:30:18;4.03;;;3.63;;
83209;SDS011;73098;47.102;15.428;2023-11-22T05:32:45;4.53;;;4.07;;
83209;SDS011;73098;47.102;15.428;2023-11-22T05:35:11;4.07;;;3.77;;
83209;SDS011;73098;47.102;15.428;2023-11-22T05:37:38;4.13;;;3.73;;
83209;SDS011;73098;47.102;15.428;2023-11-22T05:40:04;4.20;;;3.90;;
83209;SDS011;73098;47.102;15.428;2023-11-22T05:42:31;6.43;;;4.40;;
83209;SDS011;73098;47.102;15.428;2023-11-22T05:44:58;4.90;;;4.50;;
83209;SDS011;73098;47.102;15.428;2023-11-22T05:47:24;4.40;;;4.00;;
83209;SDS011;73098;47.102;15.428;2023-11-22T05:49:51;4.60;;;4.20;;
83209;SDS011;73098;47.102;15.428;2023-11-22T05:52:17;5.17;;;4.70;;
83209;SDS011;73098;47.102;15.428;2023-11-22T05:54:44;6.67;;;5.07;;
83209;SDS011;73098;47.102;15.428;2023-11-22T05:57:10;4.87;;;4.47;;
83209;SDS011;73098;47.102;15.428;2023-11-22T05:59:37;4.50;;;4.10;;
83209;SDS011;73098;47.102;15.428;2023-11-22T06:02:03;4.53;;;4.10;;
83209;SDS011;73098;47.102;15.428;2023-11-22T06:04:30;7.40;;;6.63;;
83209;SDS011;73098;47.102;15.428;2023-11-22T06:06:57;6.90;;;6.27;;
83209;SDS011;73098;47.102;15.428;2023-11-22T06:09:23;9.00;;;8.10;;
83209;SDS011;73098;47.102;15.428;2023-11-22T06:11:50;8.87;;;8.03;;
83209;SDS011;73098;47.102;15.428;2023-11-22T06:14:16;10.40;;;7.63;;
83209;SDS011;73098;47.102;15.428;2023-11-22T06:16:42;10.07;;;8.77;;
83209;SDS011;73098;47.102;15.428;2023-11-22T06:19:09;8.80;;;7.90;;
83209;SDS011;73098;47.102;15.428;2023-11-22T06:21:35;9.40;;;7.60;;
83209;SDS011;73098;47.102;15.428;2023-11-22T06:24:02;9.27;;;8.27;;
83209;SDS011;73098;47.102;15.428;2023-11-22T06:26:29;11.13;;;9.37;;
83209;SDS011;73098;47.102;15.428;2023-11-22T06:28:55;10.33;;;8.70;;
83209;SDS011;73098;47.102;15.428;2023-11-22T06:31:22;7.33;;;6.63;;
83209;SDS011;73098;47.102;15.428;2023-11-22T06:33:48;8.00;;;6.73;;
83209;SDS011;73098;47.102;15.428;2023-11-22T06:36:15;8.00;;;7.20;;
83209;SDS011;73098;47.102;15.428;2023-11-22T06:38:41;8.47;;;7.53;;
83209;SDS011;73098;47.102;15.428;2023-11-22T06:41:08;7.90;;;7.20;;
83209;SDS011;73098;47.102;15.428;2023-11-22T06:43:35;16.40;;;9.77;;
83209;SDS011;73098;47.102;15.428;2023-11-22T06:46:01;10.67;;;8.10;;
83209;SDS011;73098;47.102;15.428;2023-11-22T06:48:28;8.87;;;7.97;;
83209;SDS011;73098;47.102;15.428;2023-11-22T06:50:54;12.20;;;10.57;;
83209;SDS011;73098;47.102;15.428;2023-11-22T06:53:21;15.73;;;11.17;;
83209;SDS011;73098;47.102;15.428;2023-11-22T06:55:47;12.67;;;10.70;;
83209;SDS011;73098;47.102;15.428;2023-11-22T06:58:14;19.80;;;11.70;;
83209;SDS011;73098;47.102;15.428;2023-11-22T07:00:40;14.37;;;11.70;;
83209;SDS011;73098;47.102;15.428;2023-11-22T07:03:07;14.80;;;10.27;;
83209;SDS011;73098;47.102;15.428;2023-11-22T07:05:33;13.50;;;9.07;;
83209;SDS011;73098;47.102;15.428;2023-11-22T07:08:00;13.73;;;10.97;;
83209;SDS011;73098;47.102;15.428;2023-11-22T07:10:26;11.80;;;9.70;;
83209;SDS011;73098;47.102;15.428;2023-11-22T07:12:53;10.80;;;8.90;;
83209;SDS011;73098;47.102;15.428;2023-11-22T07:15:19;15.60;;;12.03;;
83209;SDS011;73098;47.102;15.428;2023-11-22T07:17:46;10.47;;;9.03;;
83209;SDS011;73098;47.102;15.428;2023-11-22T07:20:12;13.23;;;10.10;;
83209;SDS011;73098;47.102;15.428;2023-11-22T07:22:39;11.33;;;9.33;;
83209;SDS011;73098;47.102;15.428;2023-11-22T07:25:05;11.27;;;8.57;;
83209;SDS011;73098;47.102;15.428;2023-11-22T07:27:32;18.83;;;13.20;;
83209;SDS011;73098;47.102;15.428;2023-11-22T07:29:59;16.40;;;12.23;;
83209;SDS011;73098;47.102;15.428;2023-11-22T07:32:25;82.40;;;72.23;;
83209;SDS011;73098;47.102;15.428;2023-11-22T07:34:52;36.70;;;32.80;;
83209;SDS011;73098;47.102;15.428;2023-11-22T07:37:18;14.30;;;12.13;;
83209;SDS011;73098;47.102;15.428;2023-11-22T07:39:44;13.67;;;11.10;;
83209;SDS011;73098;47.102;15.428;2023-11-22T07:42:11;11.73;;;10.63;;
83209;SDS011;73098;47.102;15.428;2023-11-22T07:44:37;16.30;;;14.73;;
83209;SDS011;73098;47.102;15.428;2023-11-22T07:47:05;15.10;;;11.17;;
83209;SDS011;73098;47.102;15.428;2023-11-22T07:49:32;15.93;;;11.37;;
83209;SDS011;73098;47.102;15.428;2023-11-22T07:51:59;17.53;;;15.60;;
83209;SDS011;73098;47.102;15.428;2023-11-22T07:54:25;34.53;;;30.93;;
83209;SDS011;73098;47.102;15.428;2023-11-22T07:56:52;34.87;;;31.53;;
83209;SDS011;73098;47.102;15.428;2023-11-22T07:59:18;34.93;;;31.53;;
83209;SDS011;73098;47.102;15.428;2023-11-22T08:01:45;21.43;;;19.20;;
83209;SDS011;73098;47.102;15.428;2023-11-22T08:04:12;16.10;;;14.60;;
83209;SDS011;73098;47.102;15.428;2023-11-22T08:06:39;14.73;;;13.13;;
83209;SDS011;73098;47.102;15.428;2023-11-22T08:09:05;11.60;;;10.33;;
83209;SDS011;73098;47.102;15.428;2023-11-22T08:11:32;13.77;;;12.30;;
83209;SDS011;73098;47.102;15.428;2023-11-22T08:13:58;13.33;;;12.00;;
83209;SDS011;73098;47.102;15.428;2023-11-22T08:16:25;18.40;;;11.10;;
83209;SDS011;73098;47.102;15.428;2023-11-22T08:18:52;13.20;;;10.70;;
83209;SDS011;73098;47.102;15.428;2023-11-22T08:21:18;13.47;;;11.87;;
83209;SDS011;73098;47.102;15.428;2023-11-22T08:23:45;33.30;;;28.80;;
83209;SDS011;73098;47.102;15.428;2023-11-22T08:26:12;35.67;;;31.37;;
83209;SDS011;73098;47.102;15.428;2023-11-22T08:28:39;23.90;;;17.97;;
83209;SDS011;73098;47.102;15.428;2023-11-22T08:31:05;17.40;;;14.90;;
83209;SDS011;73098;47.102;15.428;2023-11-22T08:33:32;17.53;;;15.70;;
83209;SDS011;73098;47.102;15.428;2023-11-22T08:35:58;23.57;;;21.17;;
83209;SDS011;73098;47.102;15.428;2023-11-22T08:38:25;14.13;;;11.33;;
83209;SDS011;73098;47.102;15.428;2023-11-22T08:40:51;15.87;;;11.30;;
83209;SDS011;73098;47.102;15.428;2023-11-22T08:43:18;16.43;;;12.57;;
83209;SDS011;73098;47.102;15.428;2023-11-22T08:45:45;14.77;;;11.20;;
83209;SDS011;73098;47.102;15.428;2023-11-22T08:48:11;15.17;;;10.67;;
83209;SDS011;73098;47.102;15.428;2023-11-22T08:50:38;16.67;;;11.93;;
83209;SDS011;73098;47.102;15.428;2023-11-22T08:53:04;42.07;;;11.33;;
83209;SDS011;73098;47.102;15.428;2023-11-22T08:55:31;14.03;;;12.47;;
83209;SDS011;73098;47.102;15.428;2023-11-22T08:57:57;10.97;;;8.80;;
83209;SDS011;73098;47.102;15.428;2023-11-22T09:00:24;11.83;;;8.00;;
83209;SDS011;73098;47.102;15.428;2023-11-22T09:02:50;13.63;;;11.33;;
83209;SDS011;73098;47.102;15.428;2023-11-22T09:05:17;9.00;;;6.57;;
83209;SDS011;73098;47.102;15.428;2023-11-22T09:07:44;13.87;;;9.90;;
83209;SDS011;73098;47.102;15.428;2023-11-22T09:10:10;10.87;;;7.67;;
83209;SDS011;73098;47.102;15.428;2023-11-22T09:12:37;11.70;;;10.17;;
83209;SDS011;73098;47.102;15.428;2023-11-22T09:15:05;10.47;;;8.73;;
83209;SDS011;73098;47.102;15.428;2023-11-22T09:17:39;11.80;;;9.33;;
83209;SDS011;73098;47.102;15.428;2023-11-22T09:20:06;10.87;;;9.17;;
83209;SDS011;73098;47.102;15.428;2023-11-22T09:22:33;13.73;;;8.00;;
83209;SDS011;73098;47.102;15.428;2023-11-22T09:24:59;9.90;;;8.27;;
83209;SDS011;73098;47.102;15.428;2023-11-22T09:27:26;12.30;;;8.50;;
83209;SDS011;73098;47.102;15.428;2023-11-22T09:29:52;10.37;;;7.23;;
83209;SDS011;73098;47.102;15.428;2023-11-22T09:32:19;9.33;;;7.80;;
83209;SDS011;73098;47.102;15.428;2023-11-22T09:34:45;9.30;;;8.03;;
83209;SDS011;73098;47.102;15.428;2023-11-22T09:37:12;10.83;;;7.40;;
83209;SDS011;73098;47.102;15.428;2023-11-22T09:39:38;8.90;;;7.13;;
83209;SDS011;73098;47.102;15.428;2023-11-22T09:42:04;12.13;;;9.10;;
83209;SDS011;73098;47.102;15.428;2023-11-22T09:44:31;12.00;;;9.80;;
83209;SDS011;73098;47.102;15.428;2023-11-22T09:46:57;12.70;;;9.03;;
83209;SDS011;73098;47.102;15.428;2023-11-22T09:49:24;10.23;;;9.00;;
83209;SDS011;73098;47.102;15.428;2023-11-22T09:51:51;11.47;;;9.30;;
83209;SDS011;73098;47.102;15.428;2023-11-22T09:54:20;8.60;;;7.80;;
83209;SDS011;73098;47.102;15.428;2023-11-22T09:56:48;9.60;;;8.63;;
83209;SDS011;73098;47.102;15.428;2023-11-22T09:59:15;10.20;;;7.70;;
83209;SDS011;73098;47.102;15.428;2023-11-22T10:01:43;14.03;;;8.33;;
83209;SDS011;73098;47.102;15.428;2023-11-22T10:04:10;13.60;;;9.10;;
83209;SDS011;73098;47.102;15.428;2023-11-22T10:06:37;12.53;;;10.03;;
83209;SDS011;73098;47.102;15.428;2023-11-22T10:09:03;8.40;;;7.53;;
83209;SDS011;73098;47.102;15.428;2023-11-22T10:11:31;10.97;;;8.20;;
83209;SDS011;73098;47.102;15.428;2023-11-22T10:13:57;9.10;;;8.30;;
83209;SDS011;73098;47.102;15.428;2023-11-22T10:16:24;9.27;;;7.77;;
83209;SDS011;73098;47.102;15.428;2023-11-22T10:18:50;11.30;;;8.67;;
83209;SDS011;73098;47.102;15.428;2023-11-22T10:21:29;9.10;;;8.17;;
83209;SDS011;73098;47.102;15.428;2023-11-22T10:24:00;11.40;;;8.50;;
83209;SDS011;73098;47.102;15.428;2023-11-22T10:26:27;12.27;;;9.13;;
83209;SDS011;73098;47.102;15.428;2023-11-22T10:28:54;12.20;;;8.30;;
83209;SDS011;73098;47.102;15.428;2023-11-22T10:31:21;10.53;;;7.97;;
83209;SDS011;73098;47.102;15.428;2023-11-22T10:33:48;12.63;;;7.20;;
83209;SDS011;73098;47.102;15.428;2023-11-22T10:36:15;7.10;;;6.20;;
83209;SDS011;73098;47.102;15.428;2023-11-22T10:38:45;10.70;;;8.70;;
83209;SDS011;73098;47.102;15.428;2023-11-22T10:41:13;8.27;;;6.00;;
83209;SDS011;73098;47.102;15.428;2023-11-22T10:43:40;6.83;;;5.90;;
83209;SDS011;73098;47.102;15.428;2023-11-22T10:46:06;7.53;;;6.10;;
83209;SDS011;73098;47.102;15.428;2023-11-22T10:48:33;6.77;;;5.77;;
83209;SDS011;73098;47.102;15.428;2023-11-22T10:51:00;5.63;;;5.13;;
83209;SDS011;73098;47.102;15.428;2023-11-22T10:53:30;7.60;;;5.17;;
83209;SDS011;73098;47.102;15.428;2023-11-22T10:56:17;5.23;;;4.67;;
83209;SDS011;73098;47.102;15.428;2023-11-22T10:58:51;5.27;;;4.80;;
83209;SDS011;73098;47.102;15.428;2023-11-22T11:01:19;6.10;;;5.03;;
83209;SDS011;73098;47.102;15.428;2023-11-22T11:03:52;4.70;;;4.27;;
83209;SDS011;73098;47.102;15.428;2023-11-22T11:06:23;4.30;;;3.90;;
83209;SDS011;73098;47.102;15.428;2023-11-22T11:08:53;4.70;;;4.30;;
83209;SDS011;73098;47.102;15.428;2023-11-22T11:11:21;5.73;;;5.23;;
83209;SDS011;73098;47.102;15.428;2023-11-22T11:13:47;4.77;;;4.37;;
83209;SDS011;73098;47.102;15.428;2023-11-22T11:16:15;8.53;;;5.13;;
83209;SDS011;73098;47.102;15.428;2023-11-22T11:18:42;6.17;;;5.50;;
83209;SDS011;73098;47.102;15.428;2023-11-22T11:21:09;6.27;;;5.30;;
83209;SDS011;73098;47.102;15.428;2023-11-22T11:23:35;6.30;;;5.60;;
83209;SDS011;73098;47.102;15.428;2023-11-22T11:26:09;6.57;;;5.50;;
83209;SDS011;73098;47.102;15.428;2023-11-22T11:28:47;6.33;;;5.73;;
83209;SDS011;73098;47.102;15.428;2023-11-22T11:31:15;5.87;;;5.37;;
83209;SDS011;73098;47.102;15.428;2023-11-22T11:36:21;6.17;;;5.67;;
83209;SDS011;73098;47.102;15.428;2023-11-22T11:38:51;6.97;;;6.27;;
83209;SDS011;73098;47.102;15.428;2023-11-22T11:41:18;6.97;;;6.37;;
83209;SDS011;73098;47.102;15.428;2023-11-22T11:43:46;6.00;;;5.47;;
83209;SDS011;73098;47.102;15.428;2023-11-22T11:46:16;5.00;;;4.70;;
83209;SDS011;73098;47.102;15.428;2023-11-22T11:48:49;6.07;;;5.47;;
83209;SDS011;73098;47.102;15.428;2023-11-22T11:51:17;5.10;;;4.70;;
83209;SDS011;73098;47.102;15.428;2023-11-22T11:53:45;7.30;;;5.97;;
83209;SDS011;73098;47.102;15.428;2023-11-22T11:56:12;6.23;;;4.87;;
83209;SDS011;73098;47.102;15.428;2023-11-22T11:58:42;5.53;;;5.03;;
83209;SDS011;73098;47.102;15.428;2023-11-22T12:01:09;5.10;;;4.70;;
83209;SDS011;73098;47.102;15.428;2023-11-22T12:03:38;7.27;;;6.57;;
83209;SDS011;73098;47.102;15.428;2023-11-22T12:06:06;4.80;;;4.40;;
83209;SDS011;73098;47.102;15.428;2023-11-22T12:08:33;6.70;;;6.10;;
83209;SDS011;73098;47.102;15.428;2023-11-22T12:11:04;5.47;;;4.97;;
83209;SDS011;73098;47.102;15.428;2023-11-22T12:13:31;5.73;;;5.20;;
83209;SDS011;73098;47.102;15.428;2023-11-22T12:15:58;4.40;;;4.10;;
83209;SDS011;73098;47.102;15.428;2023-11-22T12:18:24;9.80;;;5.00;;
83209;SDS011;73098;47.102;15.428;2023-11-22T12:21:00;5.77;;;5.27;;
83209;SDS011;73098;47.102;15.428;2023-11-22T12:23:27;4.93;;;4.53;;
83209;SDS011;73098;47.102;15.428;2023-11-22T12:25:56;4.30;;;3.90;;
83209;SDS011;73098;47.102;15.428;2023-11-22T12:28:24;5.73;;;4.87;;
83209;SDS011;73098;47.102;15.428;2023-11-22T12:30:52;4.13;;;3.73;;
83209;SDS011;73098;47.102;15.428;2023-11-22T12:33:19;4.87;;;4.30;;
83209;SDS011;73098;47.102;15.428;2023-11-22T12:35:46;4.93;;;4.43;;
83209;SDS011;73098;47.102;15.428;2023-11-22T12:38:13;4.97;;;4.60;;
83209;SDS011;73098;47.102;15.428;2023-11-22T12:40:45;4.87;;;4.50;;
83209;SDS011;73098;47.102;15.428;2023-11-22T12:43:12;5.20;;;4.70;;
83209;SDS011;73098;47.102;15.428;2023-11-22T12:45:39;5.30;;;4.80;;
83209;SDS011;73098;47.102;15.428;2023-11-22T12:48:21;5.20;;;4.63;;
83209;SDS011;73098;47.102;15.428;2023-11-22T12:50:49;5.20;;;4.50;;
83209;SDS011;73098;47.102;15.428;2023-11-22T12:53:16;4.97;;;4.50;;
83209;SDS011;73098;47.102;15.428;2023-11-22T12:55:43;5.17;;;4.67;;
83209;SDS011;73098;47.102;15.428;2023-11-22T12:58:13;5.60;;;5.20;;
83209;SDS011;73098;47.102;15.428;2023-11-22T13:00:40;5.13;;;4.63;;
83209;SDS011;73098;47.102;15.428;2023-11-22T13:03:09;5.70;;;5.10;;
83209;SDS011;73098;47.102;15.428;2023-11-22T13:05:37;5.30;;;4.90;;
83209;SDS011;73098;47.102;15.428;2023-11-22T13:08:04;5.57;;;5.10;;
83209;SDS011;73098;47.102;15.428;2023-11-22T13:10:32;5.80;;;5.30;;
83209;SDS011;73098;47.102;15.428;2023-11-22T13:12:59;10.37;;;7.90;;
83209;SDS011;73098;47.102;15.428;2023-11-22T13:15:25;4.43;;;4.00;;
83209;SDS011;73098;47.102;15.428;2023-11-22T13:17:52;5.17;;;4.60;;
83209;SDS011;73098;47.102;15.428;2023-11-22T13:20:19;4.97;;;4.57;;
83209;SDS011;73098;47.102;15.428;2023-11-22T13:22:46;4.73;;;4.33;;
83209;SDS011;73098;47.102;15.428;2023-11-22T13:25:12;5.23;;;4.73;;
83209;SDS011;73098;47.102;15.428;2023-11-22T13:27:39;5.87;;;4.67;;
83209;SDS011;73098;47.102;15.428;2023-11-22T13:30:06;5.20;;;4.33;;
83209;SDS011;73098;47.102;15.428;2023-11-22T13:32:33;4.23;;;3.93;;
83209;SDS011;73098;47.102;15.428;2023-11-22T13:35:01;4.80;;;4.40;;
83209;SDS011;73098;47.102;15.428;2023-11-22T13:37:27;5.23;;;4.80;;
83209;SDS011;73098;47.102;15.428;2023-11-22T13:39:54;4.30;;;3.97;;
83209;SDS011;73098;47.102;15.428;2023-11-22T13:42:20;4.60;;;4.20;;
83209;SDS011;73098;47.102;15.428;2023-11-22T13:44:47;7.53;;;5.10;;
83209;SDS011;73098;47.102;15.428;2023-11-22T13:47:13;4.53;;;4.13;;
83209;SDS011;73098;47.102;15.428;2023-11-22T13:49:39;4.97;;;4.47;;
83209;SDS011;73098;47.102;15.428;2023-11-22T13:52:06;4.80;;;4.40;;
83209;SDS011;73098;47.102;15.428;2023-11-22T13:54:33;5.10;;;4.33;;
83209;SDS011;73098;47.102;15.428;2023-11-22T13:56:59;5.17;;;4.27;;
83209;SDS011;73098;47.102;15.428;2023-11-22T13:59:25;5.60;;;4.37;;
83209;SDS011;73098;47.102;15.428;2023-11-22T14:01:52;4.10;;;3.80;;
83209;SDS011;73098;47.102;15.428;2023-11-22T14:04:19;7.20;;;5.70;;
83209;SDS011;73098;47.102;15.428;2023-11-22T14:06:45;5.17;;;4.67;;
83209;SDS011;73098;47.102;15.428;2023-11-22T14:09:12;4.87;;;4.57;;
83209;SDS011;73098;47.102;15.428;2023-11-22T14:11:38;4.30;;;3.83;;
83209;SDS011;73098;47.102;15.428;2023-11-22T14:14:05;4.10;;;3.80;;
83209;SDS011;73098;47.102;15.428;2023-11-22T14:16:31;3.83;;;3.53;;
83209;SDS011;73098;47.102;15.428;2023-11-22T14:18:58;3.90;;;3.60;;
83209;SDS011;73098;47.102;15.428;2023-11-22T14:21:24;6.07;;;3.90;;
83209;SDS011;73098;47.102;15.428;2023-11-22T14:23:51;4.17;;;3.83;;
83209;SDS011;73098;47.102;15.428;2023-11-22T14:26:19;6.30;;;4.50;;
83209;SDS011;73098;47.102;15.428;2023-11-22T14:28:46;4.33;;;3.17;;
83209;SDS011;73098;47.102;15.428;2023-11-22T14:31:12;3.93;;;3.63;;
83209;SDS011;73098;47.102;15.428;2023-11-22T14:33:40;5.73;;;5.13;;
83209;SDS011;73098;47.102;15.428;2023-11-22T14:36:07;6.50;;;3.90;;
83209;SDS011;73098;47.102;15.428;2023-11-22T14:38:34;3.80;;;3.60;;
83209;SDS011;73098;47.102;15.428;2023-11-22T14:41:00;3.53;;;3.23;;
83209;SDS011;73098;47.102;15.428;2023-11-22T14:43:27;4.47;;;4.07;;